Time;durP1;ratioP1;P1;durP2;ratioP2;P2;SDS_P1;SDS_P2;PMS_P1;PMS_P2;Temp;Humidity;BMP_temperature;BMP_pressure;BME280_temperature;BME280_humidity;BME280_pressure;Samples;Min_cycle;Max_cycle;Signal;HPM_P1;HPM_P2
2024/03/16 00:00:09;;;;;;;15.10;14.20;;;;;;;;;;5093888;28;20441;-82
2024/03/16 00:02:36;;;;;;;16.40;15.10;;;;;;;;;;5093341;28;20452;-82
2024/03/16 00:05:03;;;;;;;15.33;14.07;;;;;;;;;;5103299;28;20870;-82
2024/03/16 00:07:30;;;;;;;13.90;13.10;;;;;;;;;;5114341;28;20442;-82
2024/03/16 00:09:57;;;;;;;15.70;14.63;;;;;;;;;;5114504;28;20448;-83
2024/03/16 00:12:24;;;;;;;18.73;16.80;;;;;;;;;;5110587;28;20469;-82
2024/03/16 00:14:51;;;;;;;18.37;17.20;;;;;;;;;;5093762;28;20427;-82
2024/03/16 00:17:20;;;;;;;17.87;16.10;;;;;;;;;;5093693;28;21187;-82
2024/03/16 00:19:47;;;;;;;17.83;16.67;;;;;;;;;;5093716;28;20962;-82
2024/03/16 00:22:15;;;;;;;17.00;15.73;;;;;;;;;;5097991;28;20487;-82
2024/03/16 00:24:42;;;;;;;17.00;15.80;;;;;;;;;;5092984;28;20953;-81
2024/03/16 00:27:09;;;;;;;18.30;16.90;;;;;;;;;;5076908;28;21235;-84
2024/03/16 00:29:36;;;;;;;18.57;16.90;;;;;;;;;;5093347;28;20756;-83
2024/03/16 00:32:04;;;;;;;16.80;15.70;;;;;;;;;;5093616;28;20446;-83
2024/03/16 00:34:32;;;;;;;16.70;15.70;;;;;;;;;;5094117;28;20440;-81
2024/03/16 00:37:04;;;;;;;18.07;16.57;;;;;;;;;;5111111;28;20455;-83
2024/03/16 00:39:31;;;;;;;16.63;15.53;;;;;;;;;;5113820;28;20482;-82
2024/03/16 00:41:58;;;;;;;16.50;15.50;;;;;;;;;;5113730;28;20432;-81
2024/03/16 00:44:25;;;;;;;17.90;16.43;;;;;;;;;;5113782;28;20583;-82
2024/03/16 00:46:52;;;;;;;16.07;15.10;;;;;;;;;;5114067;28;20457;-83
2024/03/16 00:49:20;;;;;;;16.60;15.33;;;;;;;;;;5114113;28;20477;-83
2024/03/16 00:51:47;;;;;;;15.60;14.67;;;;;;;;;;5113576;28;20410;-83
2024/03/16 00:54:14;;;;;;;17.17;15.50;;;;;;;;;;5104214;28;20481;-84
2024/03/16 00:56:42;;;;;;;16.47;15.27;;;;;;;;;;5094204;28;20408;-84
2024/03/16 00:59:09;;;;;;;15.27;14.33;;;;;;;;;;5093843;28;20507;-82
2024/03/16 01:01:36;;;;;;;15.17;14.13;;;;;;;;;;5092452;28;20530;-82
2024/03/16 01:04:04;;;;;;;15.97;14.43;;;;;;;;;;5093795;28;20519;-81
2024/03/16 01:06:31;;;;;;;16.37;15.20;;;;;;;;;;5093805;28;20449;-82
2024/03/16 01:08:58;;;;;;;15.97;14.70;;;;;;;;;;5092669;28;20955;-83
2024/03/16 01:11:26;;;;;;;15.90;14.60;;;;;;;;;;5096769;28;20467;-82
2024/03/16 01:13:53;;;;;;;15.20;14.00;;;;;;;;;;5101742;28;20468;-83
2024/03/16 01:16:20;;;;;;;15.77;14.63;;;;;;;;;;5118606;28;20494;-80
2024/03/16 01:18:47;;;;;;;14.63;13.73;;;;;;;;;;5118483;28;20491;-82
2024/03/16 01:21:15;;;;;;;14.30;13.40;;;;;;;;;;5117355;28;20437;-83
2024/03/16 01:23:42;;;;;;;16.50;15.40;;;;;;;;;;5117096;28;20482;-83
2024/03/16 01:26:09;;;;;;;15.67;14.30;;;;;;;;;;5117218;28;20988;-82
2024/03/16 01:28:36;;;;;;;15.00;13.97;;;;;;;;;;5118533;28;20432;-82
2024/03/16 01:31:03;;;;;;;15.00;14.10;;;;;;;;;;5117257;28;20420;-82
2024/03/16 01:33:30;;;;;;;18.13;15.17;;;;;;;;;;5116997;28;20470;-81
2024/03/16 01:35:58;;;;;;;16.00;14.50;;;;;;;;;;5117259;28;20466;-82
2024/03/16 01:38:25;;;;;;;15.50;14.40;;;;;;;;;;5117985;28;20448;-82
2024/03/16 01:40:52;;;;;;;14.80;13.70;;;;;;;;;;5117384;28;20436;-82
2024/03/16 01:43:19;;;;;;;13.87;12.97;;;;;;;;;;5117418;28;20452;-81
2024/03/16 01:45:47;;;;;;;15.03;13.60;;;;;;;;;;5098508;28;20513;-82
2024/03/16 01:48:14;;;;;;;16.00;14.87;;;;;;;;;;5097385;28;20460;-82
2024/03/16 01:50:41;;;;;;;14.33;13.53;;;;;;;;;;5096910;28;20424;-82
2024/03/16 01:53:09;;;;;;;14.03;13.10;;;;;;;;;;5096866;28;20443;-83
2024/03/16 01:55:36;;;;;;;14.47;13.57;;;;;;;;;;5112194;28;20462;-81
2024/03/16 01:58:04;;;;;;;15.23;13.50;;;;;;;;;;5117084;28;20451;-82
2024/03/16 02:00:31;;;;;;;14.53;13.50;;;;;;;;;;5117176;28;20438;-84
2024/03/16 02:02:58;;;;;;;13.70;12.90;;;;;;;;;;5116726;28;20501;-82
2024/03/16 02:05:25;;;;;;;14.40;13.30;;;;;;;;;;5116890;28;20545;-83
2024/03/16 02:07:52;;;;;;;14.70;13.70;;;;;;;;;;5117270;28;20448;-84
2024/03/16 02:10:19;;;;;;;14.80;13.83;;;;;;;;;;5117027;28;20436;-83
2024/03/16 02:12:47;;;;;;;14.23;13.43;;;;;;;;;;5116956;28;20469;-82
2024/03/16 02:15:14;;;;;;;15.73;14.60;;;;;;;;;;5103561;28;20871;-82
2024/03/16 02:17:41;;;;;;;14.67;13.70;;;;;;;;;;5112863;28;20440;-84
2024/03/16 02:20:14;;;;;;;14.60;13.60;;;;;;;;;;5117689;28;21035;-84
2024/03/16 02:22:42;;;;;;;14.20;13.23;;;;;;;;;;5115876;28;20974;-82
2024/03/16 02:25:09;;;;;;;14.80;13.93;;;;;;;;;;5121113;28;20538;-81
2024/03/16 02:27:36;;;;;;;14.20;13.40;;;;;;;;;;5116362;28;20517;-82
2024/03/16 02:30:03;;;;;;;14.10;13.40;;;;;;;;;;5110094;28;20453;-84
2024/03/16 02:32:31;;;;;;;15.00;13.70;;;;;;;;;;5106787;28;20440;-82
2024/03/16 02:34:58;;;;;;;12.10;11.60;;;;;;;;;;5096385;28;20472;-83
2024/03/16 02:37:25;;;;;;;13.73;12.90;;;;;;;;;;5097833;28;20483;-83
2024/03/16 02:39:52;;;;;;;15.90;14.70;;;;;;;;;;5096923;28;20441;-84
2024/03/16 02:42:19;;;;;;;14.67;13.87;;;;;;;;;;5095971;28;20457;-82
2024/03/16 02:44:46;;;;;;;15.27;14.10;;;;;;;;;;5096088;28;21051;-83
2024/03/16 02:47:13;;;;;;;15.03;14.07;;;;;;;;;;5112478;28;20850;-82
2024/03/16 02:49:40;;;;;;;14.43;13.70;;;;;;;;;;5104985;28;20486;-82
2024/03/16 02:52:09;;;;;;;14.83;14.00;;;;;;;;;;5096129;28;20524;-84
2024/03/16 02:54:36;;;;;;;14.67;13.57;;;;;;;;;;5102953;28;20547;-82
2024/03/16 02:57:03;;;;;;;13.90;12.60;;;;;;;;;;5116499;28;20449;-84
2024/03/16 02:59:31;;;;;;;15.13;13.90;;;;;;;;;;5116329;28;20442;-82
2024/03/16 03:01:58;;;;;;;15.93;14.63;;;;;;;;;;5116383;28;20497;-84
2024/03/16 03:04:25;;;;;;;16.07;15.17;;;;;;;;;;5115943;28;20472;-83
2024/03/16 03:06:52;;;;;;;16.67;15.57;;;;;;;;;;5116606;28;20773;-82
2024/03/16 03:09:20;;;;;;;15.73;14.27;;;;;;;;;;5116750;28;20444;-83
2024/03/16 03:11:48;;;;;;;15.70;14.30;;;;;;;;;;5115927;28;20455;-83
2024/03/16 03:14:15;;;;;;;16.60;15.00;;;;;;;;;;5109374;28;20503;-82
2024/03/16 03:16:43;;;;;;;14.97;13.97;;;;;;;;;;5106854;28;20921;-82
2024/03/16 03:19:10;;;;;;;15.73;14.63;;;;;;;;;;5095524;28;20470;-82
2024/03/16 03:21:37;;;;;;;15.57;14.67;;;;;;;;;;5095757;28;20450;-82
2024/03/16 03:24:05;;;;;;;16.37;15.30;;;;;;;;;;5096238;28;20482;-83
2024/03/16 03:26:32;;;;;;;16.33;15.13;;;;;;;;;;5095981;28;20494;-82
2024/03/16 03:28:59;;;;;;;15.37;14.47;;;;;;;;;;5112701;28;20444;-82
2024/03/16 03:31:26;;;;;;;14.43;13.73;;;;;;;;;;5114884;28;20912;-84
2024/03/16 03:33:53;;;;;;;17.13;15.70;;;;;;;;;;5115680;28;20457;-82
2024/03/16 03:36:20;;;;;;;12.63;12.13;;;;;;;;;;5108441;28;20424;-82
2024/03/16 03:38:48;;;;;;;16.40;15.20;;;;;;;;;;5115863;28;20460;-83
2024/03/16 03:41:15;;;;;;;15.90;14.90;;;;;;;;;;5114965;28;20445;-82
2024/03/16 03:43:46;;;;;;;15.20;14.13;;;;;;;;;;5114991;28;20463;-82
2024/03/16 03:46:28;;;;;;;16.37;15.07;;;;;;;;;;5114024;28;20662;-81
2024/03/16 03:49:10;;;;;;;16.40;14.90;;;;;;;;;;5115675;28;20435;-82
2024/03/16 03:51:37;;;;;;;15.57;14.47;;;;;;;;;;5114901;28;20433;-82
2024/03/16 03:54:04;;;;;;;15.70;14.70;;;;;;;;;;5115177;28;20475;-82
2024/03/16 03:56:31;;;;;;;16.27;14.67;;;;;;;;;;5115033;28;20456;-83
2024/03/16 03:58:58;;;;;;;16.23;14.83;;;;;;;;;;5115164;28;20967;-84
2024/03/16 04:01:25;;;;;;;14.20;13.23;;;;;;;;;;5095487;28;20510;-84
2024/03/16 04:03:52;;;;;;;15.90;14.80;;;;;;;;;;5094676;28;20486;-82
2024/03/16 04:06:20;;;;;;;15.40;14.50;;;;;;;;;;5102714;28;20969;-82
2024/03/16 04:08:47;;;;;;;16.37;15.37;;;;;;;;;;5094564;28;20875;-82
2024/03/16 04:11:14;;;;;;;16.07;14.80;;;;;;;;;;5094021;28;20867;-83
2024/03/16 04:13:41;;;;;;;17.13;15.40;;;;;;;;;;5094384;28;20623;-84
2024/03/16 04:16:10;;;;;;;16.90;15.43;;;;;;;;;;5101280;28;20461;-83
2024/03/16 04:18:37;;;;;;;18.70;16.90;;;;;;;;;;5115135;28;20924;-81
2024/03/16 04:21:05;;;;;;;17.03;15.53;;;;;;;;;;5114606;28;20435;-82
2024/03/16 04:23:33;;;;;;;15.60;14.60;;;;;;;;;;5114978;28;20450;-81
2024/03/16 04:26:00;;;;;;;17.30;16.20;;;;;;;;;;5119409;28;20485;-82
2024/03/16 04:28:27;;;;;;;19.20;17.70;;;;;;;;;;5118081;28;20443;-83
2024/03/16 04:30:54;;;;;;;20.60;18.67;;;;;;;;;;5114462;28;20502;-82
2024/03/16 04:33:21;;;;;;;22.80;20.90;;;;;;;;;;5104154;28;20445;-82
2024/03/16 04:35:48;;;;;;;21.30;19.23;;;;;;;;;;5099158;28;20456;-81
2024/03/16 04:38:17;;;;;;;21.07;19.00;;;;;;;;;;5094584;28;20809;-82
2024/03/16 04:40:44;;;;;;;24.50;22.30;;;;;;;;;;5093921;28;20801;-83
2024/03/16 04:43:11;;;;;;;27.03;23.77;;;;;;;;;;5093673;28;20441;-82
2024/03/16 04:45:38;;;;;;;32.53;29.17;;;;;;;;;;5093016;28;20494;-82
2024/03/16 04:48:05;;;;;;;29.87;27.10;;;;;;;;;;5094033;28;20407;-83
2024/03/16 04:50:33;;;;;;;29.87;27.27;;;;;;;;;;5094699;28;20433;-83
2024/03/16 04:53:00;;;;;;;25.97;23.70;;;;;;;;;;5093886;28;20442;-81
2024/03/16 04:55:27;;;;;;;23.50;21.87;;;;;;;;;;5093600;28;20487;-82
2024/03/16 04:57:54;;;;;;;28.60;26.30;;;;;;;;;;5094222;28;21101;-81
2024/03/16 05:00:21;;;;;;;28.37;25.53;;;;;;;;;;5113926;28;20563;-83
2024/03/16 05:02:49;;;;;;;20.63;19.23;;;;;;;;;;5113892;28;20439;-82
2024/03/16 05:05:16;;;;;;;29.20;26.30;;;;;;;;;;5114149;28;20457;-83
2024/03/16 05:07:43;;;;;;;24.33;22.20;;;;;;;;;;5099593;28;20953;-82
2024/03/16 05:10:11;;;;;;;29.53;26.60;;;;;;;;;;5094029;28;20473;-82
2024/03/16 05:12:38;;;;;;;32.00;21.60;;;;;;;;;;5092927;28;20800;-82
2024/03/16 05:15:08;;;;;;;27.90;25.40;;;;;;;;;;5093723;28;20470;-82
2024/03/16 05:17:39;;;;;;;28.40;25.57;;;;;;;;;;5095100;28;20434;-82
2024/03/16 05:20:06;;;;;;;22.97;20.97;;;;;;;;;;5108340;28;20481;-83
2024/03/16 05:22:33;;;;;;;25.73;23.27;;;;;;;;;;5113420;28;20449;-82
2024/03/16 05:25:00;;;;;;;28.47;25.80;;;;;;;;;;5113833;28;20503;-82
2024/03/16 05:27:27;;;;;;;28.47;25.47;;;;;;;;;;5114017;28;20444;-83
2024/03/16 05:29:55;;;;;;;30.23;26.63;;;;;;;;;;5094430;28;20449;-83
2024/03/16 05:32:23;;;;;;;26.17;23.87;;;;;;;;;;5092934;28;20469;-82
2024/03/16 05:34:50;;;;;;;30.50;27.70;;;;;;;;;;5093829;28;20470;-82
2024/03/16 05:37:17;;;;;;;28.63;25.60;;;;;;;;;;5092760;28;20451;-83
2024/03/16 05:39:44;;;;;;;35.43;29.97;;;;;;;;;;5092695;28;20428;-82
2024/03/16 05:42:12;;;;;;;31.70;28.40;;;;;;;;;;5121893;28;20524;-82
2024/03/16 05:44:39;;;;;;;36.87;29.33;;;;;;;;;;5112850;28;20496;-82
2024/03/16 05:47:06;;;;;;;31.17;27.90;;;;;;;;;;5113392;28;20492;-82
2024/03/16 05:49:34;;;;;;;31.13;28.07;;;;;;;;;;5113338;28;20980;-83
2024/03/16 05:52:01;;;;;;;41.20;34.03;;;;;;;;;;5113089;28;21029;-83
2024/03/16 05:54:33;;;;;;;37.87;31.50;;;;;;;;;;5112865;28;20461;-83
2024/03/16 05:57:01;;;;;;;34.20;29.53;;;;;;;;;;5111188;28;20534;-81
2024/03/16 05:59:28;;;;;;;34.83;31.10;;;;;;;;;;5117252;28;20442;-82
2024/03/16 06:01:55;;;;;;;39.87;33.90;;;;;;;;;;5116354;28;20435;-81
2024/03/16 06:04:22;;;;;;;40.90;33.93;;;;;;;;;;5116659;28;20484;-82
2024/03/16 06:06:49;;;;;;;39.13;32.60;;;;;;;;;;5116793;28;20480;-81
2024/03/16 06:09:17;;;;;;;38.10;34.10;;;;;;;;;;5116408;28;20419;-82
2024/03/16 06:11:44;;;;;;;42.27;34.63;;;;;;;;;;5102891;28;20502;-81
2024/03/16 06:14:11;;;;;;;37.30;33.30;;;;;;;;;;5095928;28;20446;-83
2024/03/16 06:16:39;;;;;;;40.43;33.33;;;;;;;;;;5104599;28;20449;-81
2024/03/16 06:19:07;;;;;;;41.83;35.93;;;;;;;;;;5116586;28;20414;-81
2024/03/16 06:21:34;;;;;;;36.83;33.00;;;;;;;;;;5099375;28;20531;-82
2024/03/16 06:24:03;;;;;;;40.17;32.27;;;;;;;;;;5101764;28;20529;-81
2024/03/16 06:26:32;;;;;;;25.00;22.63;;;;;;;;;;5097339;28;20571;-83
2024/03/16 06:29:06;;;;;;;36.60;32.70;;;;;;;;;;5095782;28;20452;-82
2024/03/16 06:31:35;;;;;;;34.27;30.00;;;;;;;;;;5095514;28;20408;-84
2024/03/16 06:34:04;;;;;;;34.63;29.00;;;;;;;;;;5095432;28;20584;-82
2024/03/16 06:36:31;;;;;;;33.47;29.93;;;;;;;;;;5102621;28;20474;-82
2024/03/16 06:38:59;;;;;;;34.67;30.57;;;;;;;;;;5115820;28;20487;-83
2024/03/16 06:41:26;;;;;;;34.70;31.10;;;;;;;;;;5115177;28;20523;-82
2024/03/16 06:43:53;;;;;;;32.23;28.83;;;;;;;;;;5112125;28;20494;-84
2024/03/16 06:46:22;;;;;;;34.23;29.17;;;;;;;;;;5095563;28;20466;-85
2024/03/16 06:48:48;;;;;;;24.97;22.70;;;;;;;;;;5099212;28;20478;-81
2024/03/16 06:51:15;;;;;;;30.03;26.83;;;;;;;;;;5095059;28;20965;-83
2024/03/16 06:53:42;;;;;;;29.10;26.10;;;;;;;;;;5095547;28;21028;-82
2024/03/16 06:56:09;;;;;;;20.87;19.17;;;;;;;;;;5096079;28;20507;-82
2024/03/16 06:58:36;;;;;;;20.80;19.20;;;;;;;;;;5095900;28;20500;-83
2024/03/16 07:01:04;;;;;;;22.43;20.60;;;;;;;;;;5095401;28;20932;-83
2024/03/16 07:03:31;;;;;;;19.30;17.80;;;;;;;;;;5096063;28;20418;-82
2024/03/16 07:05:58;;;;;;;18.13;16.93;;;;;;;;;;5095899;28;20462;-83
2024/03/16 07:08:25;;;;;;;16.90;15.90;;;;;;;;;;5094380;28;20454;-82
2024/03/16 07:10:52;;;;;;;19.63;17.47;;;;;;;;;;5095293;28;20508;-83
2024/03/16 07:13:20;;;;;;;17.50;16.60;;;;;;;;;;5094318;28;20965;-86
2024/03/16 07:15:47;;;;;;;18.47;17.37;;;;;;;;;;5095910;28;20962;-83
2024/03/16 07:18:14;;;;;;;16.33;15.53;;;;;;;;;;5095346;28;20448;-83
2024/03/16 07:20:41;;;;;;;18.53;17.43;;;;;;;;;;5095482;28;20446;-84
2024/03/16 07:23:08;;;;;;;19.40;18.07;;;;;;;;;;5095305;28;21093;-83
2024/03/16 07:25:35;;;;;;;17.47;16.57;;;;;;;;;;5095370;28;20453;-85
2024/03/16 07:28:04;;;;;;;17.80;16.80;;;;;;;;;;5095798;28;20482;-84
2024/03/16 07:30:31;;;;;;;17.77;16.87;;;;;;;;;;5095132;28;20547;-84
2024/03/16 07:32:58;;;;;;;17.07;16.27;;;;;;;;;;5094327;28;20483;-83
2024/03/16 07:35:25;;;;;;;17.53;16.73;;;;;;;;;;5095748;28;20472;-84
2024/03/16 07:37:52;;;;;;;17.70;16.70;;;;;;;;;;5104793;28;20436;-83
2024/03/16 07:40:21;;;;;;;17.90;16.90;;;;;;;;;;5114655;28;20448;-83
2024/03/16 07:45:53;;;;;;;17.97;16.97;;;;;;;;;;5094798;28;20901;-83
2024/03/16 07:48:21;;;;;;;16.40;15.40;;;;;;;;;;5094437;28;20425;-83
2024/03/16 07:50:48;;;;;;;17.27;16.37;;;;;;;;;;5094005;28;20441;-83
2024/03/16 07:53:15;;;;;;;16.30;15.60;;;;;;;;;;5105746;27;20453;-83
2024/03/16 07:55:42;;;;;;;17.53;16.53;;;;;;;;;;5134846;27;20453;-83
2024/03/16 07:58:09;;;;;;;19.00;17.37;;;;;;;;;;5135854;27;20498;-83
2024/03/16 08:00:36;;;;;;;17.10;16.30;;;;;;;;;;5136041;27;20447;-85
2024/03/16 08:03:03;;;;;;;17.23;16.27;;;;;;;;;;5135447;27;20440;-83
2024/03/16 08:05:32;;;;;;;17.37;16.47;;;;;;;;;;5135674;27;21028;-84
2024/03/16 08:07:59;;;;;;;16.70;15.90;;;;;;;;;;5135578;27;20474;-82
2024/03/16 08:10:26;;;;;;;16.60;15.80;;;;;;;;;;5135367;27;20516;-82
2024/03/16 08:12:53;;;;;;;17.90;16.80;;;;;;;;;;5135229;27;20415;-85
2024/03/16 08:15:21;;;;;;;16.63;15.63;;;;;;;;;;5134957;27;20964;-83
2024/03/16 08:20:58;;;;;;;16.47;15.77;;;;;;;;;;5133192;27;20397;-83
2024/03/16 08:24:02;;;;;;;17.53;16.60;;;;;;;;;;5134815;27;20457;-82
2024/03/16 08:26:29;;;;;;;16.80;16.00;;;;;;;;;;5134904;27;20486;-84
2024/03/16 08:35:05;;;;;;;19.63;18.63;;;;;;;;;;5097109;28;20518;-84
2024/03/16 08:37:32;;;;;;;19.17;18.27;;;;;;;;;;5094544;28;20889;-84
2024/03/16 08:39:59;;;;;;;19.60;18.60;;;;;;;;;;5099032;28;20850;-85
2024/03/16 08:42:26;;;;;;;18.70;17.43;;;;;;;;;;5093501;28;20983;-84
2024/03/16 08:44:53;;;;;;;18.30;17.30;;;;;;;;;;5106445;28;20960;-83
2024/03/16 08:47:21;;;;;;;17.47;16.67;;;;;;;;;;5103835;28;20972;-83
2024/03/16 08:49:48;;;;;;;18.30;17.20;;;;;;;;;;5102312;28;20491;-84
2024/03/16 08:52:16;;;;;;;17.57;16.77;;;;;;;;;;5093434;28;20449;-83
2024/03/16 08:54:43;;;;;;;16.10;15.20;;;;;;;;;;5093891;28;20464;-83
2024/03/16 08:57:10;;;;;;;15.73;15.03;;;;;;;;;;5094247;28;20824;-83
2024/03/16 08:59:38;;;;;;;16.83;15.90;;;;;;;;;;5102264;28;20456;-84
2024/03/16 09:02:05;;;;;;;14.70;14.10;;;;;;;;;;5105257;28;20436;-84
2024/03/16 09:04:33;;;;;;;15.53;14.73;;;;;;;;;;5103386;28;20521;-83
2024/03/16 09:07:00;;;;;;;16.83;15.93;;;;;;;;;;5094581;28;20485;-85
2024/03/16 09:09:27;;;;;;;16.40;15.60;;;;;;;;;;5094859;28;20434;-83
2024/03/16 09:11:54;;;;;;;16.97;16.03;;;;;;;;;;5101442;28;20474;-84
2024/03/16 09:23:32;;;;;;;16.10;15.30;;;;;;;;;;5095834;28;20511;-83
2024/03/16 09:26:01;;;;;;;16.10;15.30;;;;;;;;;;5110988;28;20825;-84
2024/03/16 09:28:30;;;;;;;16.47;15.77;;;;;;;;;;5111098;28;20487;-84
2024/03/16 09:33:39;;;;;;;17.00;16.20;;;;;;;;;;5080589;28;20479;-84
2024/03/16 09:36:06;;;;;;;16.67;15.87;;;;;;;;;;5101915;28;20873;-87
2024/03/16 09:38:34;;;;;;;16.07;15.37;;;;;;;;;;5098833;28;20522;-84
2024/03/16 09:41:02;;;;;;;16.00;15.30;;;;;;;;;;5114035;27;20457;-84
2024/03/16 10:01:53;;;;;;;15.40;14.50;;;;;;;;;;5132440;27;20408;-83
2024/03/16 10:04:22;;;;;;;14.97;14.07;;;;;;;;;;5136845;27;20505;-84
2024/03/16 10:06:49;;;;;;;14.93;14.23;;;;;;;;;;5136980;27;20454;-85
2024/03/16 10:09:16;;;;;;;14.87;13.87;;;;;;;;;;5138003;27;20439;-82
2024/03/16 10:11:43;;;;;;;15.77;14.70;;;;;;;;;;5136763;27;21173;-85
2024/03/16 10:14:11;;;;;;;15.50;14.67;;;;;;;;;;5137774;27;20520;-83
2024/03/16 10:16:44;;;;;;;15.50;14.40;;;;;;;;;;5136339;27;20457;-84
2024/03/16 10:19:13;;;;;;;16.70;15.23;;;;;;;;;;5138093;27;20432;-84
2024/03/16 10:21:40;;;;;;;14.63;13.93;;;;;;;;;;5139166;27;20414;-83
2024/03/16 10:24:07;;;;;;;15.53;14.60;;;;;;;;;;5137854;27;20506;-84
2024/03/16 10:26:35;;;;;;;16.00;14.87;;;;;;;;;;5139282;27;20478;-82
2024/03/16 10:29:03;;;;;;;16.20;15.00;;;;;;;;;;5104490;27;20548;-85
2024/03/16 10:31:31;;;;;;;16.47;15.23;;;;;;;;;;5114603;28;20441;-84
2024/03/16 10:33:59;;;;;;;16.67;14.90;;;;;;;;;;5097815;28;20521;-83
2024/03/16 10:36:27;;;;;;;16.27;15.47;;;;;;;;;;5098997;28;20513;-83
2024/03/16 10:38:54;;;;;;;17.13;15.80;;;;;;;;;;5099402;28;20481;-84
2024/03/16 10:41:21;;;;;;;16.60;15.60;;;;;;;;;;5101940;28;20416;-84
2024/03/16 10:43:48;;;;;;;16.67;15.53;;;;;;;;;;5115625;28;20555;-83
2024/03/16 10:46:17;;;;;;;16.97;15.87;;;;;;;;;;5104182;28;20417;-84
2024/03/16 10:48:44;;;;;;;16.20;15.20;;;;;;;;;;5097627;28;20463;-81
2024/03/16 10:51:12;;;;;;;15.97;15.17;;;;;;;;;;5104437;28;20413;-82
2024/03/16 10:53:40;;;;;;;16.37;15.33;;;;;;;;;;5099484;28;20484;-85
2024/03/16 10:56:07;;;;;;;16.60;15.43;;;;;;;;;;5098178;28;20837;-81
2024/03/16 10:58:35;;;;;;;18.67;17.07;;;;;;;;;;5098418;28;20448;-85
2024/03/16 11:01:02;;;;;;;16.90;15.70;;;;;;;;;;5100369;28;20511;-80
2024/03/16 11:03:31;;;;;;;17.07;16.03;;;;;;;;;;5098719;28;20422;-79
2024/03/16 11:06:01;;;;;;;16.03;15.13;;;;;;;;;;5098121;28;20425;-81
2024/03/16 11:08:37;;;;;;;17.57;16.57;;;;;;;;;;5097946;28;20478;-82
2024/03/16 11:11:05;;;;;;;16.57;15.57;;;;;;;;;;5101191;28;20426;-84
2024/03/16 11:13:32;;;;;;;15.90;14.97;;;;;;;;;;5107956;28;20538;-83
2024/03/16 11:15:59;;;;;;;19.03;17.47;;;;;;;;;;5118098;28;20450;-84
2024/03/16 11:18:56;;;;;;;17.43;16.40;;;;;;;;;;5118141;28;20452;-83
2024/03/16 11:21:26;;;;;;;16.10;15.30;;;;;;;;;;5118065;28;20450;-82
2024/03/16 11:23:53;;;;;;;17.27;16.37;;;;;;;;;;5116997;28;20496;-80
2024/03/16 11:26:36;;;;;;;16.90;16.10;;;;;;;;;;5117990;28;20443;-84
2024/03/16 11:32:06;;;;;;;16.43;15.50;;;;;;;;;;5117297;28;20435;-81
2024/03/16 11:34:33;;;;;;;16.80;15.70;;;;;;;;;;5118026;28;20513;-81
2024/03/16 11:37:04;;;;;;;18.83;17.63;;;;;;;;;;5116194;28;20448;-79
2024/03/16 11:39:32;;;;;;;17.80;16.80;;;;;;;;;;5099508;28;20951;-82
2024/03/16 11:41:59;;;;;;;17.80;16.60;;;;;;;;;;5122724;27;20440;-80
2024/03/16 11:44:25;;;;;;;17.90;16.70;;;;;;;;;;5116053;28;20457;-80
2024/03/16 11:46:53;;;;;;;17.60;16.70;;;;;;;;;;5124825;27;20517;-78
2024/03/16 11:49:21;;;;;;;18.20;17.00;;;;;;;;;;5092697;28;20506;-78
2024/03/16 11:51:48;;;;;;;17.00;16.20;;;;;;;;;;5094736;28;20496;-78
2024/03/16 11:54:14;;;;;;;15.33;14.73;;;;;;;;;;5114068;28;20447;-79
2024/03/16 11:56:41;;;;;;;16.80;16.10;;;;;;;;;;5116902;28;20436;-79
2024/03/16 11:59:08;;;;;;;16.90;16.10;;;;;;;;;;5117075;28;20427;-80
2024/03/16 12:01:36;;;;;;;18.13;17.13;;;;;;;;;;5133346;27;20942;-79
2024/03/16 12:04:03;;;;;;;17.20;16.17;;;;;;;;;;5116547;28;20883;-78
2024/03/16 12:06:30;;;;;;;16.60;15.70;;;;;;;;;;5116769;28;20432;-79
2024/03/16 12:08:56;;;;;;;17.10;16.13;;;;;;;;;;5116271;28;20460;-81
2024/03/16 12:11:24;;;;;;;19.53;18.17;;;;;;;;;;5116589;28;20430;-78
2024/03/16 12:13:51;;;;;;;18.70;17.20;;;;;;;;;;5098746;28;20445;-79
2024/03/16 12:16:18;;;;;;;17.13;16.13;;;;;;;;;;5102926;28;20444;-80
2024/03/16 12:18:44;;;;;;;17.37;16.33;;;;;;;;;;5116483;28;20523;-85
2024/03/16 12:21:13;;;;;;;17.57;16.47;;;;;;;;;;5133467;27;20476;-78
2024/03/16 12:23:39;;;;;;;17.30;16.40;;;;;;;;;;5114530;28;20485;-78
2024/03/16 12:26:09;;;;;;;18.77;17.43;;;;;;;;;;5115887;28;20420;-80
2024/03/16 12:28:35;;;;;;;17.90;16.77;;;;;;;;;;5115518;28;20498;-78
2024/03/16 12:31:02;;;;;;;18.20;16.73;;;;;;;;;;5114768;28;20444;-78
2024/03/16 12:33:28;;;;;;;17.30;16.07;;;;;;;;;;5115007;28;20452;-79
2024/03/16 12:35:56;;;;;;;17.40;16.20;;;;;;;;;;5114879;28;20415;-78
2024/03/16 12:38:22;;;;;;;16.63;15.63;;;;;;;;;;5114854;28;21101;-78
2024/03/16 12:40:49;;;;;;;17.13;16.13;;;;;;;;;;5098490;28;20507;-78
2024/03/16 12:43:16;;;;;;;16.20;15.40;;;;;;;;;;5122114;27;20452;-79
2024/03/16 12:45:43;;;;;;;18.30;16.70;;;;;;;;;;5115287;28;20446;-80
2024/03/16 12:48:10;;;;;;;16.80;15.83;;;;;;;;;;5115233;28;20503;-78
2024/03/16 12:50:37;;;;;;;15.93;15.20;;;;;;;;;;5114591;28;20426;-81
2024/03/16 12:53:03;;;;;;;16.33;15.50;;;;;;;;;;5114656;28;20424;-79
2024/03/16 12:55:30;;;;;;;16.93;15.93;;;;;;;;;;5115139;28;20456;-80
2024/03/16 12:57:56;;;;;;;17.73;16.50;;;;;;;;;;5112140;28;20908;-79
2024/03/16 13:00:24;;;;;;;18.63;17.40;;;;;;;;;;5100494;28;20444;-79
2024/03/16 13:02:50;;;;;;;16.13;15.30;;;;;;;;;;5115572;28;20499;-80
2024/03/16 13:05:20;;;;;;;18.23;17.00;;;;;;;;;;5124702;28;20487;-78
2024/03/16 13:07:46;;;;;;;17.10;15.70;;;;;;;;;;5116182;28;20470;-79
2024/03/16 13:10:13;;;;;;;18.20;17.00;;;;;;;;;;5116808;28;20434;-79
2024/03/16 13:12:40;;;;;;;17.40;16.10;;;;;;;;;;5116181;28;20447;-82
2024/03/16 13:15:08;;;;;;;17.40;16.07;;;;;;;;;;5116031;28;20464;-83
2024/03/16 13:17:34;;;;;;;17.23;16.03;;;;;;;;;;5098769;28;20447;-81
2024/03/16 13:20:03;;;;;;;17.53;16.43;;;;;;;;;;5101443;27;20450;-82
2024/03/16 13:22:29;;;;;;;18.33;17.13;;;;;;;;;;5114892;28;20451;-82
2024/03/16 13:24:56;;;;;;;16.63;15.57;;;;;;;;;;5114921;28;20441;-82
2024/03/16 13:27:22;;;;;;;16.90;15.80;;;;;;;;;;5115421;28;20536;-83
2024/03/16 13:29:49;;;;;;;18.57;17.27;;;;;;;;;;5115785;28;20472;-83
2024/03/16 13:32:15;;;;;;;17.67;16.37;;;;;;;;;;5114651;28;20504;-81
2024/03/16 13:34:42;;;;;;;17.03;16.23;;;;;;;;;;5114968;28;20436;-82
2024/03/16 13:37:08;;;;;;;17.87;16.60;;;;;;;;;;5118027;28;20445;-82
2024/03/16 13:39:37;;;;;;;17.17;16.00;;;;;;;;;;5098923;28;20469;-82
2024/03/16 13:42:05;;;;;;;17.57;16.67;;;;;;;;;;5105843;28;20459;-88
2024/03/16 13:44:34;;;;;;;18.43;17.00;;;;;;;;;;5115981;27;20548;-83
2024/03/16 13:47:00;;;;;;;19.30;17.43;;;;;;;;;;5105758;28;20466;-83
2024/03/16 13:49:27;;;;;;;18.83;17.80;;;;;;;;;;5097324;28;20490;-82
2024/03/16 13:51:54;;;;;;;18.80;16.83;;;;;;;;;;5103676;28;20504;-81
2024/03/16 13:54:22;;;;;;;18.13;16.70;;;;;;;;;;5117033;28;20907;-82
2024/03/16 13:56:48;;;;;;;18.43;17.33;;;;;;;;;;5117529;28;20466;-81
2024/03/16 13:59:15;;;;;;;17.20;16.13;;;;;;;;;;5115430;28;20471;-80
2024/03/16 14:01:41;;;;;;;17.10;16.10;;;;;;;;;;5117395;28;20590;-81
2024/03/16 14:04:08;;;;;;;17.10;16.20;;;;;;;;;;5108971;28;20474;-80
2024/03/16 14:06:34;;;;;;;17.33;16.33;;;;;;;;;;5116991;28;20440;-81
2024/03/16 14:09:06;;;;;;;19.20;18.00;;;;;;;;;;5117434;28;20826;-80
2024/03/16 14:11:32;;;;;;;16.53;15.73;;;;;;;;;;5115581;28;20445;-82
2024/03/16 14:14:00;;;;;;;18.33;17.30;;;;;;;;;;5115700;28;20479;-80
2024/03/16 14:16:26;;;;;;;17.40;16.50;;;;;;;;;;5116076;28;20436;-80
2024/03/16 14:18:53;;;;;;;17.13;16.23;;;;;;;;;;5110998;28;20875;-85
2024/03/16 14:21:19;;;;;;;17.80;16.87;;;;;;;;;;5113237;28;20502;-83
2024/03/16 14:23:46;;;;;;;19.00;17.00;;;;;;;;;;5118226;27;20446;-80
2024/03/16 14:26:12;;;;;;;18.47;17.20;;;;;;;;;;5124437;27;20852;-82
2024/03/16 14:28:39;;;;;;;19.33;18.10;;;;;;;;;;5116501;27;20477;-82
2024/03/16 14:31:05;;;;;;;17.37;16.37;;;;;;;;;;5110092;28;20458;-82
2024/03/16 14:33:35;;;;;;;17.50;16.60;;;;;;;;;;5120352;28;20414;-82
2024/03/16 14:36:01;;;;;;;17.70;16.50;;;;;;;;;;5109717;28;20458;-81
2024/03/16 14:38:28;;;;;;;17.20;16.30;;;;;;;;;;5111609;28;20467;-79
2024/03/16 14:40:54;;;;;;;17.43;16.33;;;;;;;;;;5104559;28;20477;-79
2024/03/16 14:43:21;;;;;;;16.90;16.10;;;;;;;;;;5102167;28;20913;-78
2024/03/16 14:45:47;;;;;;;16.57;15.53;;;;;;;;;;5103176;28;20444;-80
2024/03/16 14:48:15;;;;;;;16.67;15.67;;;;;;;;;;5105416;28;20457;-78
2024/03/16 14:50:41;;;;;;;16.97;15.63;;;;;;;;;;5104306;28;20888;-78
2024/03/16 14:53:08;;;;;;;16.83;16.03;;;;;;;;;;5102316;28;20445;-80
2024/03/16 14:55:35;;;;;;;17.07;16.17;;;;;;;;;;5096804;28;20491;-78
2024/03/16 14:58:03;;;;;;;17.10;16.10;;;;;;;;;;5096822;28;21079;-79
2024/03/16 15:00:29;;;;;;;17.37;16.50;;;;;;;;;;5096864;28;20441;-79
2024/03/16 15:02:58;;;;;;;17.47;16.37;;;;;;;;;;5096214;28;20435;-80